Time;durP1;ratioP1;P1;durP2;ratioP2;P2;SDS_P1;SDS_P2;PMS_P1;PMS_P2;Temp;Humidity;BMP_temperature;BMP_pressure;BME280_temperature;BME280_humidity;BME280_pressure;Samples;Min_cycle;Max_cycle;Signal;HPM_P1;HPM_P2
2021/06/07 00:01:30;;;;;;;;;0.00;0.00;;;;;19.74;54.61;101787.06;5112190;27;47507;-59
2021/06/07 00:03:55;;;;;;;;;0.00;0.00;;;;;19.69;55.12;101783.97;5120730;27;45183;-59
2021/06/07 00:06:21;;;;;;;;;0.00;0.00;;;;;19.69;54.94;101789.28;5103054;27;45218;-59
2021/06/07 00:08:47;;;;;;;;;0.00;0.00;;;;;19.68;55.00;101790.28;5119577;27;45198;-59
2021/06/07 00:11:13;;;;;;;;;0.00;0.00;;;;;19.64;55.46;101787.09;5105032;27;46920;-59
2021/06/07 00:13:40;;;;;;;;;0.00;0.00;;;;;19.59;55.48;101784.06;5123207;27;45333;-59
2021/06/07 00:16:06;;;;;;;;;0.00;0.00;;;;;19.59;55.41;101783.19;5123375;27;45311;-59
2021/06/07 00:18:32;;;;;;;;;0.00;0.00;;;;;19.55;55.34;101779.19;5123558;27;45431;-59
2021/06/07 00:21:08;;;;;;;;;0.00;0.00;;;;;19.50;55.56;101782.28;5123315;27;45446;-59
2021/06/07 00:23:33;;;;;;;;;0.00;0.00;;;;;19.45;55.45;101774.75;5123354;27;45234;-60
2021/06/07 00:25:59;;;;;;;;;0.00;0.00;;;;;19.40;55.39;101774.38;5123485;27;45635;-59
2021/06/07 00:28:24;;;;;;;;;0.00;0.00;;;;;19.38;55.65;101768.38;5122384;27;45470;-59
2021/06/07 00:30:50;;;;;;;;;0.00;0.00;;;;;19.35;55.67;101767.81;5122684;27;46298;-60
2021/06/07 00:33:15;;;;;;;;;0.00;0.00;;;;;19.30;55.78;101773.59;5123078;27;45313;-58
2021/06/07 00:35:41;;;;;;;;;0.00;0.00;;;;;19.26;55.92;101766.91;5123337;27;45452;-58
2021/06/07 00:38:06;;;;;;;;;0.00;0.00;;;;;19.22;56.22;101762.84;5123532;27;45631;-59
2021/06/07 00:40:32;;;;;;;;;0.00;0.00;;;;;19.19;56.24;101765.84;5122945;27;45631;-58
2021/06/07 00:42:59;;;;;;;;;0.00;0.00;;;;;19.15;56.41;101767.13;5122717;27;45340;-59
2021/06/07 00:45:30;;;;;;;;;0.00;0.00;;;;;19.12;56.42;101762.94;5122864;27;45264;-59
2021/06/07 00:47:58;;;;;;;;;0.00;0.00;;;;;19.07;56.38;101759.91;5123099;27;45498;-59
2021/06/07 00:50:39;;;;;;;;;0.00;0.00;;;;;19.08;56.45;101766.06;5122679;27;45603;-59
2021/06/07 00:53:12;;;;;;;;;0.00;0.00;;;;;19.03;56.52;101762.03;5122666;27;45397;-58
2021/06/07 00:55:42;;;;;;;;;0.00;0.00;;;;;19.01;56.67;101764.00;5122884;27;45159;-59
2021/06/07 00:58:09;;;;;;;;;0.00;0.00;;;;;18.97;56.49;101770.59;5122868;27;45543;-59
2021/06/07 01:00:37;;;;;;;;;0.00;0.00;;;;;18.95;56.83;101753.94;5106661;27;45424;-59
2021/06/07 01:03:04;;;;;;;;;0.00;0.00;;;;;18.94;56.66;101754.94;5104096;27;45259;-59
2021/06/07 01:05:30;;;;;;;;;0.00;0.00;;;;;18.92;56.88;101756.03;5107158;27;45327;-59
2021/06/07 01:07:55;;;;;;;;;0.00;0.00;;;;;18.91;56.62;101760.53;5102425;27;45381;-59
2021/06/07 01:10:23;;;;;;;;;0.00;0.00;;;;;18.88;57.09;101758.19;5101894;27;46099;-59
2021/06/07 01:12:49;;;;;;;;;0.00;0.00;;;;;18.88;56.87;101762.66;5110755;27;45419;-59
2021/06/07 01:15:15;;;;;;;;;0.00;0.00;;;;;18.84;56.63;101762.13;5122513;27;45284;-59
2021/06/07 01:17:41;;;;;;;;;0.00;0.00;;;;;18.82;56.41;101766.75;5123001;27;45536;-60
2021/06/07 01:20:10;;;;;;;;;0.00;0.00;;;;;18.80;57.26;101758.09;5122435;27;46165;-60
2021/06/07 01:22:37;;;;;;;;;0.00;0.00;;;;;18.78;56.62;101760.88;5122370;27;45246;-60
2021/06/07 01:25:08;;;;;;;;;0.00;0.00;;;;;18.76;57.14;101757.50;5122683;27;45337;-60
2021/06/07 01:27:34;;;;;;;;;0.00;0.00;;;;;18.72;57.37;101760.59;5122388;27;45230;-60
2021/06/07 01:30:04;;;;;;;;;0.00;0.00;;;;;18.72;57.07;101763.28;5121916;27;45932;-59
2021/06/07 01:32:30;;;;;;;;;0.00;0.00;;;;;18.68;57.35;101764.56;5122132;27;45329;-59
2021/06/07 01:34:55;;;;;;;;;0.00;0.00;;;;;18.61;57.70;101767.78;5122574;27;45307;-59
2021/06/07 01:37:21;;;;;;;;;0.00;0.00;;;;;18.59;57.37;101767.09;5122461;27;45328;-59
2021/06/07 01:39:46;;;;;;;;;0.00;0.00;;;;;18.57;57.66;101770.91;5122359;27;46362;-59
2021/06/07 01:42:11;;;;;;;;;0.00;0.00;;;;;18.55;57.19;101760.44;5125469;27;50011;-58
2021/06/07 01:44:37;;;;;;;;;0.00;0.00;;;;;18.52;57.26;101770.50;5125744;27;45188;-59
2021/06/07 01:47:02;;;;;;;;;0.00;0.00;;;;;18.49;57.45;101774.31;5126233;27;45148;-59
2021/06/07 01:49:27;;;;;;;;;0.00;0.00;;;;;18.41;58.14;101761.72;5125762;27;47808;-60
2021/06/07 01:51:53;;;;;;;;;0.00;0.00;;;;;18.31;58.27;101763.56;5125826;27;45339;-63
2021/06/07 01:54:18;;;;;;;;;0.00;0.00;;;;;18.23;58.59;101761.66;5125816;27;45297;-60
2021/06/07 01:56:43;;;;;;;;;0.00;0.00;;;;;18.17;58.56;101758.72;5126046;27;45309;-60
2021/06/07 01:59:09;;;;;;;;;0.00;0.00;;;;;18.13;58.48;101760.00;5122023;27;46333;-59
2021/06/07 02:01:34;;;;;;;;;0.00;0.00;;;;;18.13;58.64;101768.81;5115176;27;45158;-59
2021/06/07 02:04:00;;;;;;;;;0.00;0.00;;;;;18.12;58.60;101764.47;5122299;27;45191;-60
2021/06/07 02:06:25;;;;;;;;;0.00;0.00;;;;;18.11;58.46;101757.47;5115366;27;45233;-60
2021/06/07 02:08:53;;;;;;;;;0.00;0.00;;;;;18.09;58.68;101762.09;5125296;27;45321;-59
2021/06/07 02:11:22;;;;;;;;;0.00;0.00;;;;;18.08;59.01;101760.44;5125826;27;45405;-59
2021/06/07 02:13:50;;;;;;;;;0.00;0.00;;;;;18.05;58.30;101766.00;5125311;27;45283;-59
2021/06/07 02:16:19;;;;;;;;;0.00;0.00;;;;;18.01;58.96;101762.81;5125517;27;45487;-59
2021/06/07 02:18:45;;;;;;;;;0.00;0.00;;;;;17.99;58.80;101766.56;5125410;27;46284;-59
2021/06/07 02:21:11;;;;;;;;;0.00;0.00;;;;;17.96;58.82;101773.03;5125401;27;45355;-59
2021/06/07 02:23:38;;;;;;;;;0.00;0.00;;;;;17.94;59.44;101760.88;5125553;27;45242;-59
2021/06/07 02:26:05;;;;;;;;;0.00;0.00;;;;;17.93;59.34;101764.50;5125625;27;45262;-58
2021/06/07 02:28:30;;;;;;;;;0.00;0.00;;;;;17.93;59.58;101767.19;5124876;27;47167;-58
2021/06/07 02:30:56;;;;;;;;;0.00;0.00;;;;;17.92;58.91;101762.81;5124863;27;45323;-60
2021/06/07 02:33:22;;;;;;;;;0.00;0.00;;;;;17.91;59.79;101766.47;5125029;27;45409;-59
2021/06/07 02:35:47;;;;;;;;;0.00;0.00;;;;;17.89;59.09;101763.13;5125087;27;45479;-59
2021/06/07 02:38:13;;;;;;;;;0.00;0.00;;;;;17.90;59.26;101770.09;5125026;27;46290;-59
2021/06/07 02:40:41;;;;;;;;;0.00;0.00;;;;;17.87;59.22;101765.09;5124946;27;45344;-59
2021/06/07 02:43:07;;;;;;;;;0.00;0.00;;;;;17.86;59.31;101766.91;5124774;27;45350;-59
2021/06/07 02:45:33;;;;;;;;;0.00;0.00;;;;;17.82;59.56;101766.34;5124994;27;45231;-58
2021/06/07 02:48:00;;;;;;;;;0.00;0.00;;;;;17.79;59.71;101765.75;5124648;27;47312;-59
2021/06/07 02:50:30;;;;;;;;;0.00;0.00;;;;;17.73;59.72;101760.97;5124817;27;45266;-59
2021/06/07 02:52:56;;;;;;;;;0.00;0.00;;;;;17.68;59.76;101757.94;5123721;27;45301;-58
2021/06/07 02:55:24;;;;;;;;;0.00;0.00;;;;;17.61;60.39;101774.41;5106583;27;45381;-58
2021/06/07 02:57:51;;;;;;;;;0.00;0.00;;;;;17.58;60.56;101765.88;5124318;27;45505;-60
2021/06/07 03:00:29;;;;;;;;;0.00;0.00;;;;;17.54;60.59;101769.81;5111386;27;45515;-60
2021/06/07 03:02:56;;;;;;;;;0.00;0.00;;;;;17.52;60.65;101767.31;5112023;27;45340;-59
2021/06/07 03:05:21;;;;;;;;;0.00;0.00;;;;;17.51;61.06;101776.22;5110152;27;45287;-59
2021/06/07 03:07:46;;;;;;;;;0.00;0.00;;;;;17.48;60.52;101767.72;5104119;27;45374;-59
2021/06/07 03:10:13;;;;;;;;;0.00;0.00;;;;;17.45;60.93;101774.16;5118670;27;45352;-59
2021/06/07 03:12:39;;;;;;;;;0.00;0.00;;;;;17.43;60.82;101770.78;5124786;27;45276;-58
2021/06/07 03:15:06;;;;;;;;;0.00;0.00;;;;;17.40;60.72;101777.19;5124418;27;45511;-59
2021/06/07 03:17:31;;;;;;;;;0.00;0.00;;;;;17.39;60.81;101774.69;5124388;27;46289;-59
2021/06/07 03:19:57;;;;;;;;;0.00;0.00;;;;;17.38;60.79;101765.03;5124234;27;45396;-58
2021/06/07 03:22:23;;;;;;;;;0.00;0.00;;;;;17.37;60.90;101760.72;5124634;27;45302;-58
2021/06/07 03:24:52;;;;;;;;;0.00;0.00;;;;;17.36;61.15;101767.00;5124680;27;45621;-59
2021/06/07 03:27:18;;;;;;;;;0.00;0.00;;;;;17.33;60.84;101762.81;5124261;27;46012;-59
2021/06/07 03:29:45;;;;;;;;;0.00;0.00;;;;;17.31;61.18;101774.56;5123744;27;45217;-59
2021/06/07 03:32:11;;;;;;;;;0.00;0.00;;;;;17.28;61.29;101764.19;5124332;27;45423;-58
2021/06/07 03:34:36;;;;;;;;;0.00;0.00;;;;;17.25;60.97;101765.31;5124440;27;45258;-60
2021/06/07 03:37:02;;;;;;;;;0.00;0.00;;;;;17.21;61.28;101755.94;5124337;27;46518;-60
2021/06/07 03:39:27;;;;;;;;;0.00;0.00;;;;;17.20;61.39;101760.41;5105636;27;45396;-60
2021/06/07 03:41:53;;;;;;;;;0.00;0.00;;;;;17.16;61.34;101759.00;5124291;27;45255;-60
2021/06/07 03:44:18;;;;;;;;;0.00;0.00;;;;;17.12;61.10;101754.94;5105143;27;45379;-60
2021/06/07 03:46:43;;;;;;;;;0.00;0.00;;;;;17.13;61.51;101761.13;5124084;27;45463;-60
2021/06/07 03:49:09;;;;;;;;;0.00;0.00;;;;;17.12;61.56;101751.47;5123778;27;45427;-60
2021/06/07 03:51:34;;;;;;;;;0.00;0.00;;;;;17.09;61.91;101749.91;5123814;27;45428;-60
2021/06/07 03:54:00;;;;;;;;;0.00;0.00;;;;;17.08;61.21;101755.38;5123801;27;45352;-60
2021/06/07 03:56:26;;;;;;;;;0.00;0.00;;;;;17.06;61.60;101752.84;5123725;27;46134;-60
2021/06/07 03:58:51;;;;;;;;;0.00;0.00;;;;;17.08;61.52;101752.69;5122710;27;45333;-59
2021/06/07 04:01:16;;;;;;;;;0.00;0.00;;;;;17.06;61.33;101755.50;5110429;27;45715;-60
2021/06/07 04:03:42;;;;;;;;;0.00;0.00;;;;;17.05;61.52;101750.34;5123082;27;45558;-60
2021/06/07 04:06:07;;;;;;;;;0.00;0.00;;;;;17.04;61.63;101749.50;5102643;27;54420;-60
2021/06/07 04:08:32;;;;;;;;;0.00;0.00;;;;;17.04;61.99;101749.50;5117160;27;45345;-60
2021/06/07 04:10:58;;;;;;;;;0.00;0.00;;;;;17.07;61.24;101749.22;5123896;27;45309;-59
2021/06/07 04:13:23;;;;;;;;;0.00;0.00;;;;;17.07;61.31;101746.56;5123372;27;45514;-59
2021/06/07 04:15:48;;;;;;;;;0.00;0.00;;;;;17.09;61.44;101743.78;5123286;27;46185;-58
2021/06/07 04:18:14;;;;;;;;;0.00;0.00;;;;;17.12;60.71;101748.81;5123417;27;45213;-58
2021/06/07 04:20:39;;;;;;;;;0.00;0.00;;;;;17.16;61.53;101747.56;5123389;27;45219;-58
2021/06/07 04:23:06;;;;;;;;;0.00;0.00;;;;;17.17;60.97;101747.44;5123330;27;45233;-58
2021/06/07 04:25:31;;;;;;;;;0.00;0.00;;;;;17.17;61.06;101751.88;5123162;27;46590;-59
2021/06/07 04:27:59;;;;;;;;;0.00;0.00;;;;;17.18;61.16;101754.41;5123117;27;45175;-59
2021/06/07 04:30:25;;;;;;;;;0.00;0.00;;;;;17.17;60.97;101755.41;5123159;27;45371;-59
2021/06/07 04:32:52;;;;;;;;;0.00;0.00;;;;;17.16;60.83;101760.81;5123078;27;45506;-59
2021/06/07 04:35:18;;;;;;;;;0.00;0.00;;;;;17.13;60.82;101761.94;5123136;27;45338;-60
2021/06/07 04:37:51;;;;;;;;;0.00;0.00;;;;;17.12;60.74;101754.13;5122845;27;45264;-60
2021/06/07 04:40:20;;;;;;;;;0.00;0.00;;;;;17.09;61.23;101749.91;5123177;27;45280;-59
2021/06/07 04:42:46;;;;;;;;;0.00;0.00;;;;;17.06;61.09;101755.50;5123176;27;45409;-59
2021/06/07 04:45:12;;;;;;;;;0.00;0.00;;;;;17.01;61.08;101749.75;5122444;27;46103;-60
2021/06/07 04:47:37;;;;;;;;;0.00;0.00;;;;;17.02;60.92;101756.75;5122667;27;45498;-59
2021/06/07 04:50:06;;;;;;;;;0.00;0.00;;;;;17.04;61.24;101759.25;5122871;27;45414;-60
2021/06/07 04:52:32;;;;;;;;;0.00;0.00;;;;;17.06;60.39;101758.16;5122503;27;45423;-60
2021/06/07 04:54:57;;;;;;;;;0.00;0.00;;;;;17.08;60.97;101752.69;5122809;27;46726;-60
2021/06/07 04:57:22;;;;;;;;;0.00;0.00;;;;;17.11;60.84;101750.63;5122359;27;45167;-60
2021/06/07 04:59:48;;;;;;;;;0.00;0.00;;;;;17.15;60.60;101751.19;5113462;27;45175;-60
2021/06/07 05:02:13;;;;;;;;;0.00;0.00;;;;;17.16;60.54;101758.19;5117773;27;45646;-60
2021/06/07 05:04:38;;;;;;;;;0.00;0.00;;;;;17.10;60.44;101748.94;5113628;27;46519;-60
2021/06/07 05:07:04;;;;;;;;;0.00;0.00;;;;;17.18;60.22;101754.41;5101840;27;45273;-60
2021/06/07 05:09:29;;;;;;;;;0.00;0.00;;;;;17.20;60.19;101759.59;5101870;27;45253;-60
2021/06/07 05:11:54;;;;;;;;;0.00;0.00;;;;;17.22;60.35;101757.63;5102074;27;45199;-59
2021/06/07 05:14:20;;;;;;;;;0.00;0.00;;;;;17.25;60.06;101752.03;5109700;27;46474;-59
2021/06/07 05:16:45;;;;;;;;;0.00;0.00;;;;;17.29;60.33;101764.06;5121893;27;45427;-59
2021/06/07 05:19:10;;;;;;;;;0.00;0.00;;;;;17.32;60.23;101761.16;5122374;27;45482;-59
2021/06/07 05:21:36;;;;;;;;;0.00;0.00;;;;;17.35;60.07;101760.03;5122437;27;45147;-59
2021/06/07 05:24:01;;;;;;;;;0.00;0.00;;;;;17.38;61.13;101767.69;5122274;27;46692;-60
2021/06/07 05:26:26;;;;;;;;;0.00;0.00;;;;;17.45;60.37;101763.53;5122124;27;45325;-61
2021/06/07 05:28:52;;;;;;;;;0.00;0.00;;;;;17.52;60.13;101766.47;5121732;27;45286;-59
2021/06/07 05:31:17;;;;;;;;;0.00;0.00;;;;;17.58;61.12;101755.25;5122221;27;45484;-60
2021/06/07 05:33:42;;;;;;;;;0.00;0.00;;;;;17.69;59.74;101763.09;5121768;27;45421;-60
2021/06/07 05:36:08;;;;;;;;;0.00;0.00;;;;;17.72;59.93;101756.66;5121786;27;45285;-60
2021/06/07 05:38:33;;;;;;;;;0.00;0.00;;;;;17.77;59.59;101757.91;5122136;27;45279;-60
2021/06/07 05:40:59;;;;;;;;;0.00;0.00;;;;;17.86;59.93;101763.38;5122111;27;45383;-60
2021/06/07 05:43:25;;;;;;;;;0.00;0.00;;;;;17.92;58.83;101770.78;5121753;27;45277;-60
2021/06/07 05:45:52;;;;;;;;;0.00;0.00;;;;;17.89;58.05;101768.44;5121461;27;45265;-60
2021/06/07 05:48:17;;;;;;;;;0.00;0.00;;;;;17.78;58.67;101762.25;5122195;27;45301;-59
2021/06/07 05:50:43;;;;;;;;;0.00;0.00;;;;;17.86;58.65;101776.69;5121744;27;45249;-59
2021/06/07 05:53:11;;;;;;;;;0.00;0.00;;;;;17.91;58.54;101771.78;5121659;27;46153;-59
2021/06/07 05:55:39;;;;;;;;;0.00;0.00;;;;;17.96;58.63;101772.19;5121276;27;45191;-59
2021/06/07 05:58:08;;;;;;;;;0.00;0.00;;;;;18.01;58.18;101778.78;5121815;27;45363;-60
2021/06/07 06:00:37;;;;;;;;;0.00;0.00;;;;;18.04;57.69;101778.47;5106356;27;45284;-60
2021/06/07 06:03:02;;;;;;;;;0.00;0.00;;;;;17.99;56.95;101772.75;5084244;27;47282;-59
2021/06/07 06:05:28;;;;;;;;;0.00;0.00;;;;;17.95;57.17;101778.50;5105623;27;45401;-59
2021/06/07 06:07:53;;;;;;;;;0.00;0.00;;;;;18.12;57.43;101779.56;5109763;27;45322;-60
2021/06/07 06:10:19;;;;;;;;;0.00;0.00;;;;;18.47;55.54;101773.63;5120655;27;45469;-60
2021/06/07 06:12:46;;;;;;;;;0.00;0.00;;;;;18.94;55.35;101773.56;5121100;27;46075;-60
2021/06/07 06:15:13;;;;;;;;;0.00;0.00;;;;;19.34;53.76;101769.66;5120220;27;45329;-60
2021/06/07 06:17:39;;;;;;;;;0.00;0.00;;;;;19.63;52.71;101773.91;5121038;27;45320;-60
2021/06/07 06:20:06;;;;;;;;;0.00;0.00;;;;;20.03;53.87;101777.94;5121372;27;45257;-60
2021/06/07 06:22:32;;;;;;;;;0.00;0.00;;;;;20.57;53.54;101775.09;5121050;27;46812;-60
2021/06/07 06:24:57;;;;;;;;;0.00;0.00;;;;;21.01;51.40;101773.09;5120969;27;45367;-60
2021/06/07 06:27:23;;;;;;;;;0.00;0.00;;;;;21.40;49.71;101771.69;5122366;27;45281;-60
2021/06/07 06:29:48;;;;;;;;;0.00;0.00;;;;;21.73;50.40;101777.94;5105829;27;45492;-61
2021/06/07 06:32:13;;;;;;;;;0.00;0.00;;;;;22.03;49.45;101780.91;5105719;27;48065;-61
2021/06/07 06:34:41;;;;;;;;;0.00;0.00;;;;;22.31;48.66;101784.03;5124091;27;45345;-61
2021/06/07 06:37:07;;;;;;;;;0.00;0.00;;;;;22.62;46.25;101783.31;5124799;27;45335;-60
2021/06/07 06:39:33;;;;;;;;;0.00;0.00;;;;;22.71;47.49;101784.94;5124460;27;45420;-61
2021/06/07 06:41:59;;;;;;;;;0.00;0.00;;;;;22.82;47.23;101778.38;5124196;27;46487;-61
2021/06/07 06:44:25;;;;;;;;;0.00;0.00;;;;;23.01;46.79;101777.97;5123586;27;45456;-58
2021/06/07 06:46:50;;;;;;;;;0.00;0.00;;;;;23.25;46.13;101776.97;5124309;27;45228;-60
2021/06/07 06:49:15;;;;;;;;;0.00;0.00;;;;;23.41;45.48;101773.38;5105079;27;45245;-60
2021/06/07 06:51:41;;;;;;;;;0.00;0.00;;;;;23.57;45.57;101769.72;5123644;27;45247;-60
2021/06/07 06:54:06;;;;;;;;;0.00;0.00;;;;;23.85;44.67;101775.38;5123236;27;45173;-60
2021/06/07 06:56:32;;;;;;;;;0.00;0.00;;;;;24.06;44.40;101776.50;5123909;27;45510;-59
2021/06/07 06:58:59;;;;;;;;;0.00;0.00;;;;;24.28;44.07;101769.41;5122081;27;45485;-60
2021/06/07 07:01:24;;;;;;;;;0.00;0.00;;;;;24.51;43.58;101772.88;5111133;27;45623;-59
2021/06/07 07:03:51;;;;;;;;;0.00;0.00;;;;;24.67;42.97;101774.53;5121831;27;45320;-60
2021/06/07 07:06:16;;;;;;;;;0.00;0.00;;;;;24.92;42.91;101777.72;5103314;27;45305;-60
2021/06/07 07:08:41;;;;;;;;;0.00;0.00;;;;;25.25;41.73;101773.75;5103076;27;45302;-59
2021/06/07 07:11:07;;;;;;;;;0.00;0.00;;;;;25.49;40.99;101768.00;5111752;27;46458;-61
2021/06/07 07:13:32;;;;;;;;;0.00;0.00;;;;;25.71;40.31;101773.38;5123047;27;45311;-60
2021/06/07 07:15:57;;;;;;;;;0.00;0.00;;;;;25.92;40.03;101776.03;5123117;27;45228;-60
2021/06/07 07:18:23;;;;;;;;;0.00;0.00;;;;;26.17;39.78;101779.09;5123830;27;45152;-60
2021/06/07 07:20:48;;;;;;;;;0.00;0.00;;;;;26.44;38.74;101790.03;5123554;27;45285;-60
2021/06/07 07:23:14;;;;;;;;;0.00;0.00;;;;;26.71;39.29;101780.25;5123441;27;45351;-59
2021/06/07 07:25:41;;;;;;;;;0.00;0.00;;;;;26.92;38.33;101776.59;5124312;27;45462;-60
2021/06/07 07:28:08;;;;;;;;;0.00;0.00;;;;;27.13;37.43;101774.81;5123861;27;45560;-59
2021/06/07 07:30:35;;;;;;;;;0.00;0.00;;;;;27.41;36.59;101777.38;5122924;27;45324;-60
2021/06/07 07:33:01;;;;;;;;;0.00;0.00;;;;;27.24;33.88;101776.09;5123047;27;45321;-60
2021/06/07 07:35:27;;;;;;;;;0.00;0.00;;;;;27.10;36.01;101778.72;5123750;27;45355;-60
2021/06/07 07:37:53;;;;;;;;;0.00;0.00;;;;;27.31;36.18;101776.94;5123394;27;45250;-61
2021/06/07 07:40:21;;;;;;;;;0.00;0.00;;;;;27.58;35.45;101777.78;5123405;27;46845;-60
2021/06/07 07:42:48;;;;;;;;;0.00;0.00;;;;;27.83;35.86;101776.13;5122899;27;45276;-60
2021/06/07 07:45:17;;;;;;;;;0.00;0.00;;;;;28.22;35.57;101779.00;5123307;27;45432;-59
2021/06/07 07:47:42;;;;;;;;;0.00;0.00;;;;;28.59;34.50;101773.94;5123389;27;45270;-60
2021/06/07 07:50:12;;;;;;;;;0.00;0.00;;;;;28.79;33.29;101780.09;5123144;27;45291;-60
2021/06/07 07:52:41;;;;;;;;;0.00;0.00;;;;;29.04;33.36;101779.34;5123224;27;45359;-60
2021/06/07 07:55:08;;;;;;;;;0.00;0.00;;;;;29.31;32.27;101771.91;5123095;27;45250;-60
2021/06/07 07:57:34;;;;;;;;;0.00;0.00;;;;;29.61;32.66;101769.41;5123217;27;45506;-60
2021/06/07 07:59:59;;;;;;;;;0.00;0.00;;;;;29.99;32.52;101776.56;5112317;27;46345;-60
2021/06/07 08:02:24;;;;;;;;;0.00;0.00;;;;;30.31;29.53;101776.47;5102241;27;45296;-59
2021/06/07 08:04:50;;;;;;;;;0.00;0.00;;;;;30.38;31.11;101779.13;5109419;27;45217;-60
2021/06/07 08:07:15;;;;;;;;;0.00;0.00;;;;;30.41;30.40;101775.94;5102669;27;45428;-60
2021/06/07 08:09:41;;;;;;;;;0.00;0.00;;;;;30.50;30.16;101773.75;5112159;27;45213;-59
2021/06/07 08:12:06;;;;;;;;;0.00;0.00;;;;;30.71;30.53;101778.69;5122774;27;45418;-60
2021/06/07 08:14:31;;;;;;;;;0.00;0.00;;;;;31.11;30.12;101772.75;5122254;27;45434;-60
2021/06/07 08:16:57;;;;;;;;;0.00;0.00;;;;;31.50;30.00;101770.53;5123105;27;45333;-60
2021/06/07 08:19:24;;;;;;;;;0.00;0.00;;;;;31.86;29.46;101757.81;5121912;27;47271;-60
2021/06/07 08:21:49;;;;;;;;;0.00;0.00;;;;;32.05;26.86;101770.22;5121490;27;45325;-60
2021/06/07 08:24:15;;;;;;;;;0.00;0.00;;;;;31.96;28.78;101760.72;5122373;27;45437;-61
2021/06/07 08:26:41;;;;;;;;;0.00;0.00;;;;;32.08;28.85;101763.47;5122641;27;45443;-60
2021/06/07 08:29:07;;;;;;;;;0.00;0.00;;;;;32.26;27.42;101763.31;5122108;27;45431;-60
2021/06/07 08:31:33;;;;;;;;;0.00;0.00;;;;;32.64;28.05;101761.94;5122137;27;45261;-60
2021/06/07 08:33:59;;;;;;;;;0.00;0.00;;;;;33.21;27.73;101760.28;5122562;27;45466;-60
2021/06/07 08:36:25;;;;;;;;;0.00;0.00;;;;;33.76;26.66;101773.19;5122455;27;45194;-60
2021/06/07 08:38:50;;;;;;;;;0.00;0.00;;;;;34.08;25.96;101773.38;5122214;27;46074;-60
2021/06/07 08:41:15;;;;;;;;;0.00;0.00;;;;;34.92;25.77;101776.84;5122394;27;45228;-60
2021/06/07 08:43:41;;;;;;;;;0.00;0.00;;;;;36.20;24.51;101766.09;5122214;27;45503;-60
2021/06/07 08:46:09;;;;;;;;;0.00;0.00;;;;;37.67;23.37;101767.47;5103774;27;45421;-60
2021/06/07 08:48:35;;;;;;;;;0.00;0.00;;;;;39.17;21.66;101780.22;5121738;27;45266;-60
2021/06/07 08:51:02;;;;;;;;;0.00;0.00;;;;;40.51;20.44;101770.56;5120301;27;45348;-60
2021/06/07 08:53:29;;;;;;;;;0.00;0.00;;;;;41.60;19.10;101777.66;5121827;27;45205;-60
2021/06/07 08:55:55;;;;;;;;;0.00;0.00;;;;;42.74;17.94;101773.38;5122429;27;45259;-60
2021/06/07 08:58:20;;;;;;;;;0.00;0.00;;;;;44.10;16.50;101776.75;5121905;27;46210;-60
2021/06/07 09:00:46;;;;;;;;;0.00;0.00;;;;;45.31;14.69;101773.16;5104338;27;45241;-60
2021/06/07 09:03:14;;;;;;;;;0.00;0.00;;;;;46.08;14.86;101780.69;5111181;27;45407;-60
2021/06/07 09:05:42;;;;;;;;;0.00;0.00;;;;;47.00;14.42;101777.00;5105005;27;45469;-60
2021/06/07 09:08:12;;;;;;;;;0.00;0.00;;;;;47.89;13.45;101773.69;5101250;27;46307;-60
2021/06/07 09:10:41;;;;;;;;;0.00;0.00;;;;;49.02;12.60;101779.38;5119036;27;45468;-60
2021/06/07 09:13:08;;;;;;;;;0.00;0.00;;;;;49.99;12.08;101774.22;5121909;27;45423;-61
2021/06/07 09:15:34;;;;;;;;;0.00;0.00;;;;;50.47;11.20;101776.84;5121736;27;45381;-60
2021/06/07 09:18:00;;;;;;;;;0.00;0.00;;;;;50.80;10.66;101770.72;5121148;27;45635;-61
2021/06/07 09:20:27;;;;;;;;;0.00;0.00;;;;;50.93;10.23;101776.16;5121030;27;45191;-60
2021/06/07 09:22:58;;;;;;;;;0.00;0.00;;;;;50.54;10.31;101774.19;5121383;27;45304;-61
2021/06/07 09:25:29;;;;;;;;;0.00;0.00;;;;;51.18;10.51;101779.41;5121532;27;45212;-61
2021/06/07 09:28:04;;;;;;;;;0.00;0.00;;;;;51.29;9.67;101770.00;5120968;27;45315;-61
2021/06/07 09:30:30;;;;;;;;;0.00;0.00;;;;;50.93;9.94;101776.94;5121230;27;45534;-60
2021/06/07 09:33:15;;;;;;;;;0.00;0.00;;;;;50.84;10.24;101774.41;5121681;27;45318;-60
2021/06/07 09:35:40;;;;;;;;;0.00;0.00;;;;;50.26;10.18;101775.22;5121633;27;45323;-61
2021/06/07 09:38:06;;;;;;;;;0.00;0.00;;;;;48.58;10.03;101777.34;5120623;27;45440;-60
2021/06/07 09:40:32;;;;;;;;;0.00;0.00;;;;;47.70;11.84;101777.03;5121560;27;45264;-60
2021/06/07 09:42:59;;;;;;;;;0.00;0.00;;;;;47.38;12.04;101764.81;5121538;27;45226;-60
2021/06/07 09:45:54;;;;;;;;;0.50;0.50;;;;;46.97;11.60;101780.47;5121215;27;45289;-60
2021/06/07 09:48:20;;;;;;;;;0.00;0.00;;;;;46.60;12.07;101774.75;5120634;27;46293;-61
2021/06/07 09:50:53;;;;;;;;;0.00;0.00;;;;;46.63;11.09;101779.63;5102128;27;45445;-61
2021/06/07 09:53:39;;;;;;;;;0.00;0.00;;;;;46.61;11.85;101771.66;5120850;27;45281;-61
2021/06/07 09:56:04;;;;;;;;;0.00;0.00;;;;;46.49;11.90;101746.59;5120954;27;45485;-61
2021/06/07 09:58:31;;;;;;;;;0.00;0.00;;;;;46.56;11.23;101768.25;5120890;27;45412;-60
2021/06/07 10:00:57;;;;;;;;;0.00;0.00;;;;;46.22;12.10;101759.03;5102001;27;45313;-60
2021/06/07 10:03:25;;;;;;;;;0.00;0.00;;;;;46.02;12.37;101769.78;5096248;27;45183;-61
2021/06/07 10:05:53;;;;;;;;;0.00;0.00;;;;;45.67;12.40;101760.00;5105317;27;45262;-60
2021/06/07 10:08:20;;;;;;;;;0.00;0.00;;;;;45.60;11.46;101754.94;5115709;27;45960;-61
2021/06/07 10:10:45;;;;;;;;;0.00;0.00;;;;;45.72;12.14;101757.84;5124303;27;45447;-61
2021/06/07 10:13:12;;;;;;;;;0.00;0.00;;;;;45.82;12.21;101757.47;5124113;27;45778;-60
2021/06/07 10:15:39;;;;;;;;;0.00;0.00;;;;;46.61;11.54;101743.88;5123820;27;45294;-61
2021/06/07 10:18:11;;;;;;;;;0.00;0.00;;;;;47.85;11.07;101756.03;5124023;27;46284;-60
2021/06/07 10:20:46;;;;;;;;;0.00;0.00;;;;;48.82;10.34;101767.28;5123440;27;45277;-61
2021/06/07 10:23:12;;;;;;;;;0.00;0.00;;;;;49.40;7.28;101761.22;5123956;27;45235;-61
2021/06/07 10:25:37;;;;;;;;;0.00;0.00;;;;;49.34;7.90;101755.13;5123811;27;45441;-61
2021/06/07 10:28:03;;;;;;;;;0.00;0.00;;;;;49.44;9.16;101762.13;5123552;27;46171;-61
2021/06/07 10:30:29;;;;;;;;;0.00;0.00;;;;;50.18;9.16;101759.47;5123708;27;45411;-60
2021/06/07 10:32:54;;;;;;;;;0.00;0.00;;;;;50.93;8.55;101751.78;5123399;27;45365;-60
2021/06/07 10:35:30;;;;;;;;;0.00;0.00;;;;;51.43;8.25;101749.03;5123641;27;45328;-60
2021/06/07 10:38:08;;;;;;;;;0.00;0.00;;;;;51.23;8.11;101751.91;5123103;27;47102;-61
2021/06/07 10:40:57;;;;;;;;;0.00;0.00;;;;;50.53;8.41;101741.03;5123658;27;45303;-61
2021/06/07 10:43:42;;;;;;;;;0.00;0.00;;;;;48.46;9.35;101741.97;5120393;27;45267;-61
2021/06/07 10:46:34;;;;;;;;;0.00;0.00;;;;;45.33;10.75;101743.13;5123698;27;45225;-61
2021/06/07 10:49:02;;;;;;;;;0.00;0.00;;;;;44.12;12.50;101736.53;5123527;27;45451;-61
2021/06/07 10:51:31;;;;;;;;;0.00;0.00;;;;;43.56;12.49;101736.16;5123562;27;45341;-60
2021/06/07 10:54:31;;;;;;;;;0.00;0.00;;;;;43.17;12.48;101740.50;5123544;27;45374;-60
2021/06/07 10:57:22;;;;;;;;;0.00;0.00;;;;;42.87;13.27;101730.25;5123869;27;45266;-60
2021/06/07 10:59:50;;;;;;;;;0.00;0.00;;;;;42.44;13.32;101734.28;5114622;27;45498;-61
2021/06/07 11:02:18;;;;;;;;;0.00;0.00;;;;;41.12;13.58;101731.06;5102415;27;45456;-61
2021/06/07 11:04:43;;;;;;;;;0.00;0.00;;;;;39.62;14.37;101733.38;5109788;27;45382;-61
2021/06/07 11:07:17;;;;;;;;;0.00;0.00;;;;;38.48;15.44;101734.53;5102740;27;45258;-62
2021/06/07 11:10:08;;;;;;;;;0.00;0.00;;;;;37.24;15.98;101736.00;5113120;27;45627;-61
2021/06/07 11:12:34;;;;;;;;;0.00;0.00;;;;;36.30;17.05;101733.31;5122770;27;45268;-61
2021/06/07 11:15:19;;;;;;;;;0.00;0.00;;;;;35.60;16.99;101736.22;5123297;27;45721;-61
2021/06/07 11:17:45;;;;;;;;;0.00;0.00;;;;;34.97;17.62;101729.66;5123257;27;45261;-60
2021/06/07 11:20:12;;;;;;;;;0.00;0.00;;;;;34.33;18.67;101733.06;5122473;27;46266;-61
2021/06/07 11:23:05;;;;;;;;;0.00;0.00;;;;;33.92;18.84;101734.16;5122703;27;45466;-61
2021/06/07 11:25:50;;;;;;;;;0.00;0.00;;;;;33.63;19.02;101732.63;5104542;27;45265;-61
2021/06/07 11:28:39;;;;;;;;;0.00;0.00;;;;;33.20;19.31;101729.50;5123262;27;45418;-61